Terminal Aerodrome Forecast
Issued by NWS

Current Version | Previous Version | Graphics & Text | Print | Product List | Glossary On
Versions: 1 2 3 4 5 6 7 8 9 10 11 12 13 14 15 16 17 18 19 20 21 22 23 24 25 26
000
FTUS41 KRLX 052112 AAA
TAFCKB
TAF AMD
KCKB 052112Z 0521/0618 08003KT P6SM BKN080
     FM060600 00000KT 4SM BR OVC060
     FM060900 00000KT 3SM BR BKN025 OVC050
     FM061200 00000KT 3SM BR OVC015
     FM061500 21004KT 5SM SHRA OVC015=

USA.gov is the U.S. government's official web portal to all federal, state and local government web resources and services.